createdAt,value
2023-04-14T00:03:12.496Z,5.00
2023-04-14T00:08:36.633Z,5.00
2023-04-14T00:14:03.421Z,5.00
2023-04-14T00:19:27.843Z,5.00
2023-04-14T00:24:51.919Z,3.80
2023-04-14T00:30:15.779Z,3.60
2023-04-14T00:35:39.830Z,2.90
2023-04-14T00:41:04.130Z,4.60
2023-04-14T00:46:28.634Z,3.40
2023-04-14T00:51:53.355Z,2.80
2023-04-14T00:57:18.304Z,3.40
2023-04-14T01:02:43.232Z,2.70
2023-04-14T01:08:08.197Z,2.60
2023-04-14T01:13:42.021Z,3.90
2023-04-14T01:19:15.125Z,3.20
2023-04-14T01:25:03.318Z,2.60
2023-04-14T01:30:45.685Z,3.70
2023-04-14T01:36:14.438Z,7.80
2023-04-14T01:41:42.723Z,5.30
2023-04-14T01:47:10.170Z,4.30
2023-04-14T01:52:38.511Z,4.80
2023-04-14T01:58:03.709Z,4.00
2023-04-14T02:03:29.587Z,7.60
2023-04-14T02:08:53.733Z,3.30
2023-04-14T02:14:19.627Z,4.40
2023-04-14T02:19:45.322Z,3.30
2023-04-14T02:25:09.948Z,4.70
2023-04-14T02:30:39.729Z,3.10
2023-04-14T02:36:17.286Z,5.30
2023-04-14T02:41:45.760Z,3.00
2023-04-14T02:47:11.189Z,3.70
2023-04-14T02:52:40.957Z,6.30
2023-04-14T02:58:07.150Z,3.40
2023-04-14T03:03:38.065Z,4.60
2023-04-14T03:09:05.460Z,4.70
2023-04-14T03:14:33.664Z,5.80
2023-04-14T03:19:58.936Z,2.40
2023-04-14T03:25:26.348Z,3.70
2023-04-14T03:30:55.594Z,5.60
2023-04-14T03:36:21.465Z,4.00
2023-04-14T03:41:49.675Z,4.10
2023-04-14T03:47:14.948Z,3.20
2023-04-14T03:52:43.006Z,3.00
2023-04-14T03:58:09.003Z,4.20
2023-04-14T04:03:36.132Z,3.50
2023-04-14T04:09:02.924Z,3.80
2023-04-14T04:14:30.942Z,5.70
2023-04-14T04:19:59.427Z,4.20
2023-04-14T04:26:09.932Z,4.10
2023-04-14T04:31:41.486Z,6.70
2023-04-14T04:37:07.776Z,3.40
2023-04-14T04:42:32.438Z,3.40
2023-04-14T04:47:56.566Z,3.50
2023-04-14T04:53:26.924Z,6.40
2023-04-14T04:58:59.859Z,6.10
2023-04-14T12:32:25.702Z,22.90
2023-04-14T12:52:27.630Z,26.40
2023-04-14T13:12:56.153Z,30.20
2023-04-14T13:19:35.665Z,26.70
2023-04-14T13:39:58.452Z,29.50
2023-04-14T13:46:40.839Z,27.10
2023-04-14T14:06:36.259Z,31.00
2023-04-14T14:27:01.802Z,29.20
2023-04-14T14:47:23.039Z,29.30
2023-04-14T15:07:45.085Z,32.60
2023-04-14T15:34:04.253Z,33.30
2023-04-14T15:40:49.669Z,33.70
2023-04-14T16:00:53.822Z,35.00
2023-04-14T16:27:33.192Z,41.70
2023-04-14T16:34:15.172Z,35.90
2023-04-14T16:53:43.108Z,40.90
2023-04-14T17:00:09.903Z,39.20
2023-04-14T17:19:33.817Z,34.10
2023-04-14T17:26:24.304Z,35.00
2023-04-14T17:46:35.799Z,37.10
2023-04-14T17:53:06.508Z,34.20
2023-04-14T18:12:45.139Z,32.60
2023-04-14T18:19:31.213Z,27.50
2023-04-14T18:26:53.518Z,31.40
2023-04-14T18:33:25.178Z,31.40
2023-04-14T18:53:34.297Z,24.30
2023-04-14T19:00:38.050Z,23.50
2023-04-14T19:06:52.453Z,23.00
2023-04-14T19:40:06.290Z,22.90
2023-04-14T19:53:15.264Z,21.20
2023-04-14T19:59:46.138Z,21.10
2023-04-14T20:20:18.544Z,18.50
2023-04-14T20:27:04.906Z,18.70
2023-04-14T20:34:08.638Z,19.20
2023-04-14T21:00:16.938Z,15.10
2023-04-14T21:07:02.654Z,16.40
2023-04-14T21:20:13.812Z,13.50
2023-04-14T21:52:29.520Z,22.60
2023-04-14T21:58:49.815Z,20.40
2023-04-14T22:19:04.470Z,18.20
2023-04-14T22:25:50.512Z,16.70
2023-04-14T22:45:12.104Z,15.70
2023-04-14T23:05:19.586Z,17.10
2023-04-14T23:24:47.133Z,15.10
2023-04-14T23:32:07.301Z,16.50
2023-04-14T23:51:57.285Z,15.30
